Hlavní strana
METAR-TAF:

METAR-TAF

Letiště :

Suffolk Executive Airport

Suffolk, Virginie, Spojené státy americké

zeměpisná šířka: 36-40-56N, zeměpisná délka: 076-36-07W, výška: 22 m

Aktuální stav počasí

Zpráva byla vytvořena před 20 minutami, v 09:55 UTC
Bezvětří
Teplota 17°C
Vlhkost vzduchu 52%
Tlak 1014 hPa
Viditelnost: 16.1 km
Jasno

METAR: KSFQ 300955Z AUTO 00000KT 10SM CLR 17/07 A2994 RMK AO2 T01720072

Čas: 06:15 (10:15 UTC)


TAF: chybějící

Stav a předpovědi počasí z více než 4 000 letišť (zprávy METAR a TAF).

Červené a žluté tečky na mapě představují dostupné meteorologické stanice.

Když kurzor umístíte na tečku, zobrazí se název stanice.

Pak kliknutím zobrazíte stav a předpověď počasí.

Chcete-li změnit mapu, kliknutím na zelené tlačítko se znaménkem +mapu přiblížíte, kliknutím na zelené tlačítko se znaménkem – mapu oddálíte a kliknutím na zelené šipky přejdete na sousední mapy.


METAR-TAF: